createdAt,value
2023-05-14T00:00:37.401Z,6.31
2023-05-14T00:03:04.695Z,6.15
2023-05-14T00:05:31.492Z,6.15
2023-05-14T00:07:58.362Z,6.17
2023-05-14T00:10:25.225Z,6.09
2023-05-14T00:12:52.129Z,6.03
2023-05-14T00:15:19.115Z,5.91
2023-05-14T00:17:46.083Z,5.92
2023-05-14T00:20:12.878Z,5.81
2023-05-14T00:22:40.345Z,5.92
2023-05-14T00:25:08.554Z,5.85
2023-05-14T00:27:36.414Z,5.87
2023-05-14T00:30:04.267Z,5.82
2023-05-14T00:32:31.293Z,5.79
2023-05-14T00:34:58.461Z,5.50
2023-05-14T00:37:25.241Z,5.59
2023-05-14T00:39:51.871Z,5.57
2023-05-14T00:42:18.523Z,5.56
2023-05-14T00:44:45.228Z,5.60
2023-05-14T00:47:12.376Z,5.62
2023-05-14T00:49:41.236Z,5.54
2023-05-14T00:52:08.026Z,5.53
2023-05-14T00:54:36.711Z,5.60
2023-05-14T00:57:04.921Z,5.70
2023-05-14T00:59:32.080Z,5.67
2023-05-14T01:02:00.108Z,5.71
2023-05-14T01:04:27.943Z,5.61
2023-05-14T01:07:03.624Z,5.67
2023-05-14T01:09:42.734Z,5.58
2023-05-14T01:12:59.630Z,5.58
2023-05-14T01:15:32.101Z,5.58
2023-05-14T01:18:10.506Z,5.56
2023-05-14T01:20:37.654Z,5.54
2023-05-14T01:23:04.419Z,5.65
2023-05-14T01:25:31.847Z,5.63
2023-05-14T01:28:12.771Z,5.56
2023-05-14T01:31:07.200Z,5.57
2023-05-14T01:33:35.378Z,5.54
2023-05-14T01:36:03.013Z,5.60
2023-05-14T01:38:31.905Z,5.56
2023-05-14T01:41:00.312Z,5.59
2023-05-14T01:43:27.708Z,5.36
2023-05-14T01:45:55.812Z,5.40
2023-05-14T01:48:22.673Z,5.33
2023-05-14T01:50:49.346Z,5.18
2023-05-14T01:53:16.030Z,5.28
2023-05-14T01:55:42.901Z,5.24
2023-05-14T01:58:09.582Z,5.28
2023-05-14T02:00:36.346Z,5.27
2023-05-14T02:03:03.092Z,5.21
2023-05-14T02:05:29.989Z,5.25
2023-05-14T02:07:56.673Z,5.25
2023-05-14T02:10:24.767Z,5.29
2023-05-14T02:12:51.585Z,5.28
2023-05-14T02:15:18.415Z,5.41
2023-05-14T02:17:45.108Z,5.32
2023-05-14T02:20:12.429Z,5.30
2023-05-14T02:22:42.375Z,5.23
2023-05-14T02:25:09.994Z,5.28
2023-05-14T02:27:36.639Z,5.18
2023-05-14T02:30:04.880Z,5.10
2023-05-14T02:32:31.597Z,5.05
2023-05-14T02:34:58.522Z,4.97
2023-05-14T02:37:25.288Z,4.84
2023-05-14T02:39:52.472Z,4.83
2023-05-14T02:42:19.302Z,4.85
2023-05-14T02:44:45.996Z,4.86
2023-05-14T02:47:12.932Z,4.89
2023-05-14T02:49:40.464Z,4.95
2023-05-14T02:52:07.350Z,5.01
2023-05-14T02:54:34.072Z,5.03
2023-05-14T02:57:00.881Z,5.04
2023-05-14T02:59:28.043Z,4.99
2023-05-14T03:01:55.166Z,5.03
2023-05-14T03:04:22.394Z,5.07
2023-05-14T03:06:49.355Z,5.03
2023-05-14T03:09:15.995Z,5.18
2023-05-14T03:11:42.764Z,5.20
2023-05-14T03:14:09.520Z,5.22
2023-05-14T03:16:36.354Z,5.24
2023-05-14T03:19:03.078Z,5.17
2023-05-14T03:21:29.982Z,4.96
2023-05-14T03:23:56.812Z,5.06
2023-05-14T03:26:23.525Z,4.98
2023-05-14T03:28:50.856Z,5.03
2023-05-14T03:31:17.718Z,5.07
2023-05-14T03:33:44.414Z,5.13
2023-05-14T03:36:11.222Z,5.09
2023-05-14T03:38:37.996Z,5.43
2023-05-14T03:41:04.753Z,5.94
2023-05-14T03:43:32.062Z,6.48
2023-05-14T03:45:58.692Z,6.82
2023-05-14T03:48:25.628Z,7.38
2023-05-14T03:50:53.469Z,7.76
2023-05-14T03:53:20.348Z,8.14
2023-05-14T03:55:47.006Z,8.42
2023-05-14T03:58:14.622Z,8.90
2023-05-14T04:00:42.416Z,9.36
2023-05-14T04:03:10.244Z,9.49
2023-05-14T04:05:36.955Z,9.61
2023-05-14T04:08:03.819Z,9.87
2023-05-14T04:10:32.250Z,10.40
2023-05-14T04:12:59.184Z,10.95
2023-05-14T04:15:25.780Z,11.45
2023-05-14T04:17:52.491Z,11.87
2023-05-14T04:20:19.307Z,12.16
2023-05-14T04:22:46.012Z,12.40
2023-05-14T04:25:12.941Z,12.59
2023-05-14T04:27:40.162Z,12.67
2023-05-14T04:30:08.629Z,12.54
2023-05-14T04:32:35.677Z,12.50
2023-05-14T04:35:02.837Z,12.44
2023-05-14T04:37:29.550Z,12.51
2023-05-14T04:39:56.277Z,12.55
2023-05-14T04:42:23.061Z,12.53
2023-05-14T04:44:49.789Z,12.77
2023-05-14T04:47:16.464Z,12.67
2023-05-14T04:49:43.558Z,12.67
2023-05-14T04:52:10.347Z,12.77
2023-05-14T04:54:37.098Z,12.68
2023-05-14T04:57:04.017Z,11.76
2023-05-14T04:59:31.393Z,11.15
2023-05-14T05:01:58.097Z,10.90
2023-05-14T05:04:24.830Z,10.99
2023-05-14T05:06:51.508Z,11.53
2023-05-14T05:09:18.986Z,12.19
2023-05-14T05:11:45.670Z,12.71
2023-05-14T05:14:12.311Z,12.91
2023-05-14T05:16:39.064Z,13.18
2023-05-14T05:19:05.865Z,13.56
2023-05-14T05:21:32.655Z,13.64
2023-05-14T05:23:59.263Z,13.42
2023-05-14T05:26:27.103Z,13.64
2023-05-14T05:28:53.848Z,13.82
2023-05-14T05:31:20.704Z,13.78
2023-05-14T05:33:47.499Z,14.15
2023-05-14T05:36:14.509Z,14.06
2023-05-14T05:38:41.201Z,14.02
2023-05-14T05:41:07.920Z,13.97
2023-05-14T05:43:34.665Z,14.12
2023-05-14T05:46:04.813Z,14.30
2023-05-14T05:48:31.532Z,14.44
2023-05-14T05:50:58.325Z,14.36
2023-05-14T05:53:25.109Z,14.29
2023-05-14T05:55:53.380Z,14.44
2023-05-14T05:58:20.043Z,14.22
2023-05-14T06:00:47.736Z,13.94
2023-05-14T06:03:15.568Z,13.98
2023-05-14T06:05:42.441Z,14.00
2023-05-14T06:08:10.007Z,14.20
2023-05-14T06:10:37.670Z,13.95
2023-05-14T06:13:04.558Z,14.15
2023-05-14T06:15:31.352Z,14.51
2023-05-14T06:17:58.308Z,14.54
2023-05-14T06:20:25.732Z,14.49
2023-05-14T06:22:52.865Z,14.62
2023-05-14T06:25:19.821Z,14.70
2023-05-14T06:27:46.730Z,14.62
2023-05-14T06:30:14.002Z,14.76
2023-05-14T06:32:40.940Z,15.06
2023-05-14T06:35:08.235Z,15.10
2023-05-14T06:37:34.988Z,15.13
2023-05-14T06:40:01.933Z,15.54
2023-05-14T06:42:28.692Z,15.98
2023-05-14T06:44:56.159Z,15.56
2023-05-14T06:47:25.903Z,15.04
2023-05-14T06:49:52.652Z,14.41
2023-05-14T06:52:19.436Z,14.26
2023-05-14T06:54:46.099Z,14.10
2023-05-14T06:57:12.792Z,13.97
2023-05-14T06:59:39.508Z,13.72
2023-05-14T07:02:06.293Z,13.56
2023-05-14T07:04:33.104Z,13.74
2023-05-14T07:07:07.413Z,13.76
2023-05-14T07:09:34.084Z,13.88
2023-05-14T07:12:00.871Z,13.98
2023-05-14T07:14:28.063Z,13.81
2023-05-14T07:16:57.719Z,14.01
2023-05-14T07:19:28.815Z,14.23
2023-05-14T07:21:55.448Z,14.07
2023-05-14T07:24:22.146Z,14.41
2023-05-14T07:26:52.707Z,14.26
2023-05-14T07:29:19.411Z,14.41
2023-05-14T07:31:46.631Z,14.60
2023-05-14T07:34:13.902Z,14.60
2023-05-14T07:36:45.766Z,14.73
2023-05-14T07:39:16.764Z,14.83
2023-05-14T07:41:43.572Z,14.77
2023-05-14T07:44:10.287Z,15.27
2023-05-14T07:46:37.958Z,15.63
2023-05-14T07:49:04.849Z,15.53
2023-05-14T07:51:31.832Z,15.69
2023-05-14T07:53:58.559Z,15.67
2023-05-14T07:56:25.224Z,15.83
2023-05-14T07:58:55.296Z,15.89
2023-05-14T08:02:11.543Z,16.11
2023-05-14T08:04:39.099Z,16.58
2023-05-14T08:07:07.458Z,16.96
2023-05-14T08:09:34.572Z,16.90
2023-05-14T08:12:01.600Z,16.81
2023-05-14T08:14:28.919Z,16.87
2023-05-14T08:16:58.708Z,16.86
2023-05-14T08:19:27.583Z,16.80
2023-05-14T08:21:54.334Z,16.57
2023-05-14T08:24:20.999Z,16.36
2023-05-14T08:26:47.953Z,16.47
2023-05-14T08:29:16.585Z,16.50
2023-05-14T08:31:43.735Z,17.02
2023-05-14T08:34:10.485Z,17.11
2023-05-14T08:36:38.620Z,16.59
2023-05-14T08:39:05.226Z,16.84
2023-05-14T08:41:32.286Z,16.66
2023-05-14T08:44:33.371Z,16.83
2023-05-14T08:47:01.018Z,16.83
2023-05-14T08:49:43.566Z,17.20
2023-05-14T08:52:11.036Z,17.30
2023-05-14T08:54:38.606Z,17.37
2023-05-14T08:57:10.134Z,17.17
2023-05-14T08:59:37.820Z,17.05
2023-05-14T09:02:12.106Z,16.67
2023-05-14T09:04:39.424Z,16.67
2023-05-14T09:07:14.475Z,16.59
2023-05-14T09:09:41.620Z,16.37
2023-05-14T09:12:08.834Z,16.65
2023-05-14T09:14:38.121Z,16.50
2023-05-14T09:17:05.158Z,16.30
2023-05-14T09:19:31.858Z,16.03
2023-05-14T09:21:59.431Z,16.16
2023-05-14T09:24:29.514Z,16.47
2023-05-14T09:26:57.033Z,16.10
2023-05-14T09:29:29.532Z,16.17
2023-05-14T09:31:57.886Z,16.11
2023-05-14T09:34:32.367Z,16.45
2023-05-14T09:37:01.464Z,16.64
2023-05-14T09:39:29.062Z,16.40
2023-05-14T09:41:56.730Z,16.02
2023-05-14T09:44:24.274Z,16.42
2023-05-14T09:46:51.911Z,16.53
2023-05-14T09:49:19.023Z,16.72
2023-05-14T09:51:45.923Z,16.69
2023-05-14T09:54:12.557Z,16.58
2023-05-14T09:56:39.863Z,16.31
2023-05-14T09:59:06.751Z,16.19
2023-05-14T10:01:33.886Z,16.17
2023-05-14T10:04:04.204Z,16.30
2023-05-14T10:06:33.097Z,16.16
2023-05-14T10:09:04.153Z,16.09
2023-05-14T10:11:33.873Z,16.06
2023-05-14T10:14:08.512Z,16.36
2023-05-14T10:16:40.765Z,16.32
2023-05-14T10:19:12.556Z,16.22
2023-05-14T10:21:44.789Z,16.12
2023-05-14T10:24:13.187Z,16.15
2023-05-14T10:26:42.182Z,16.18
2023-05-14T10:29:10.758Z,16.24
2023-05-14T10:32:05.415Z,16.42
2023-05-14T10:34:44.609Z,16.33
2023-05-14T10:37:27.828Z,16.29
2023-05-14T10:39:59.153Z,16.42
2023-05-14T10:42:39.824Z,16.47
2023-05-14T10:45:16.235Z,16.29
2023-05-14T10:47:46.019Z,16.30
2023-05-14T10:50:15.443Z,16.42
2023-05-14T10:52:43.811Z,16.34
2023-05-14T10:55:14.518Z,16.49
2023-05-14T10:57:44.200Z,16.46
2023-05-14T11:00:11.612Z,16.73
2023-05-14T11:02:39.844Z,16.66
2023-05-14T11:05:14.049Z,16.72
2023-05-14T11:07:42.247Z,16.91
2023-05-14T11:10:12.704Z,16.79
2023-05-14T11:12:41.752Z,16.88
2023-05-14T11:15:10.993Z,16.92
2023-05-14T11:17:40.233Z,16.82
2023-05-14T11:20:08.359Z,16.81
2023-05-14T11:22:36.881Z,17.03
2023-05-14T11:25:04.118Z,17.31
2023-05-14T11:27:32.264Z,17.34
2023-05-14T11:30:01.407Z,17.20
2023-05-14T11:32:30.975Z,17.16
2023-05-14T11:34:57.748Z,17.28
2023-05-14T11:37:24.407Z,17.46
2023-05-14T11:39:53.286Z,17.45
2023-05-14T11:42:21.592Z,17.16
2023-05-14T11:44:52.645Z,17.19
2023-05-14T11:47:21.485Z,17.26
2023-05-14T11:49:49.123Z,17.25
2023-05-14T11:52:19.741Z,17.46
2023-05-14T11:54:46.691Z,17.64
2023-05-14T11:57:19.198Z,17.62
2023-05-14T11:59:46.447Z,17.43
2023-05-14T12:02:14.979Z,17.48
2023-05-14T12:04:49.652Z,17.54
2023-05-14T12:07:17.269Z,17.79
2023-05-14T12:09:49.657Z,17.70
2023-05-14T12:12:21.911Z,17.52
2023-05-14T12:14:50.243Z,17.33
2023-05-14T12:17:22.237Z,17.41
2023-05-14T12:19:51.206Z,17.61
2023-05-14T12:22:30.257Z,17.63
2023-05-14T12:24:59.331Z,17.75
2023-05-14T12:27:28.771Z,17.79
2023-05-14T12:30:19.747Z,17.94
2023-05-14T12:32:48.998Z,18.04
2023-05-14T12:35:15.891Z,18.18
2023-05-14T12:37:43.164Z,18.05
2023-05-14T12:40:10.418Z,17.96
2023-05-14T12:42:37.556Z,17.86
2023-05-14T12:45:07.527Z,17.78
2023-05-14T12:47:34.264Z,17.91
2023-05-14T12:50:01.230Z,18.01
2023-05-14T12:52:37.583Z,17.85
2023-05-14T12:55:07.053Z,17.85
2023-05-14T12:57:35.918Z,17.74
2023-05-14T13:00:07.115Z,17.56
2023-05-14T13:02:42.073Z,17.59
2023-05-14T13:05:10.184Z,17.63
2023-05-14T13:07:37.006Z,17.57
2023-05-14T13:10:06.077Z,17.64
2023-05-14T13:12:33.197Z,17.61
2023-05-14T13:14:59.948Z,17.78
2023-05-14T13:17:26.918Z,17.82
2023-05-14T13:19:53.619Z,17.80
2023-05-14T13:22:20.410Z,17.81
2023-05-14T13:24:47.165Z,17.80
2023-05-14T13:27:13.879Z,17.73
2023-05-14T13:29:40.534Z,17.62
2023-05-14T13:32:07.598Z,17.57
2023-05-14T13:34:34.272Z,17.44
2023-05-14T13:37:01.435Z,17.62
2023-05-14T13:39:28.287Z,17.69
2023-05-14T13:41:57.014Z,17.88
2023-05-14T13:44:24.272Z,17.96
2023-05-14T13:46:51.117Z,17.92
2023-05-14T13:49:18.141Z,18.00
2023-05-14T13:51:45.068Z,18.12
2023-05-14T13:54:11.925Z,18.06
2023-05-14T13:56:38.658Z,17.96
2023-05-14T13:59:05.443Z,17.96
2023-05-14T14:01:32.280Z,17.96
2023-05-14T14:03:59.220Z,18.06
2023-05-14T14:06:32.427Z,18.17
2023-05-14T14:08:59.127Z,18.20
2023-05-14T14:11:26.277Z,17.95
2023-05-14T14:13:53.493Z,17.96
2023-05-14T14:16:21.315Z,17.89
2023-05-14T14:18:48.229Z,17.83
2023-05-14T14:21:18.252Z,17.58
2023-05-14T14:23:48.786Z,17.64
2023-05-14T14:26:16.039Z,17.63
2023-05-14T14:28:43.218Z,17.57
2023-05-14T14:31:09.967Z,17.68
2023-05-14T14:33:36.669Z,17.69
2023-05-14T14:36:03.399Z,17.75
2023-05-14T14:38:30.526Z,17.71
2023-05-14T14:40:58.070Z,17.55
2023-05-14T14:43:24.971Z,17.61
2023-05-14T14:45:51.676Z,17.62
2023-05-14T14:48:34.446Z,17.60
2023-05-14T14:51:01.778Z,17.46
2023-05-14T14:53:28.493Z,17.37
2023-05-14T14:55:56.157Z,17.38
2023-05-14T14:58:23.635Z,17.38
2023-05-14T15:00:56.755Z,17.25
2023-05-14T15:03:25.255Z,17.35
2023-05-14T15:05:53.839Z,17.30
2023-05-14T15:08:29.877Z,17.30
2023-05-14T15:10:57.426Z,17.11
2023-05-14T15:13:25.051Z,17.18
2023-05-14T15:15:52.886Z,17.14
2023-05-14T15:18:19.852Z,17.07
2023-05-14T15:20:46.761Z,17.01
2023-05-14T15:23:13.496Z,17.13
2023-05-14T15:25:40.301Z,17.12
2023-05-14T15:28:07.800Z,17.13
2023-05-14T15:30:34.664Z,17.18
2023-05-14T15:33:01.517Z,17.14
2023-05-14T15:35:28.257Z,17.11
2023-05-14T15:37:57.453Z,17.19
2023-05-14T15:40:24.580Z,17.01
2023-05-14T15:42:51.458Z,17.14
2023-05-14T15:45:18.163Z,17.11
2023-05-14T15:47:47.735Z,17.02
2023-05-14T15:50:14.517Z,17.00
2023-05-14T15:52:41.649Z,16.97
2023-05-14T15:55:09.006Z,16.93
2023-05-14T15:57:35.824Z,16.88
2023-05-14T16:00:10.184Z,16.95
2023-05-14T16:02:40.245Z,16.87
2023-05-14T16:05:07.560Z,16.86
2023-05-14T16:07:34.578Z,16.81
2023-05-14T16:10:01.253Z,16.81
2023-05-14T16:12:28.162Z,16.73
2023-05-14T16:14:54.907Z,16.70
2023-05-14T16:17:21.608Z,16.71
2023-05-14T16:19:48.522Z,16.68
2023-05-14T16:22:15.388Z,16.67
2023-05-14T16:24:42.081Z,16.60
2023-05-14T16:27:08.866Z,16.56
2023-05-14T16:29:35.644Z,16.53
2023-05-14T16:32:02.588Z,16.49
2023-05-14T16:34:29.571Z,16.52
2023-05-14T16:36:56.362Z,16.42
2023-05-14T16:39:22.983Z,16.47
2023-05-14T16:41:49.677Z,16.40
2023-05-14T16:44:16.607Z,16.41
2023-05-14T16:46:43.369Z,16.42
2023-05-14T16:49:10.087Z,16.40
2023-05-14T16:51:45.272Z,16.36
2023-05-14T16:54:12.005Z,16.26
2023-05-14T16:56:44.218Z,16.08
2023-05-14T16:59:10.904Z,16.19
2023-05-14T17:01:38.045Z,16.17
2023-05-14T17:04:04.958Z,16.17
2023-05-14T17:06:32.064Z,16.14
2023-05-14T17:08:58.856Z,16.12
2023-05-14T17:11:25.689Z,16.08
2023-05-14T17:13:52.622Z,16.02
2023-05-14T17:16:22.087Z,15.90
2023-05-14T17:18:49.351Z,15.96
2023-05-14T17:21:16.214Z,15.92
2023-05-14T17:23:42.800Z,15.89
2023-05-14T17:26:09.671Z,15.78
2023-05-14T17:28:36.273Z,15.80
2023-05-14T17:31:02.992Z,15.75
2023-05-14T17:33:29.945Z,15.74
2023-05-14T17:35:56.832Z,15.70
2023-05-14T17:38:24.734Z,15.65
2023-05-14T17:40:51.576Z,15.67
2023-05-14T17:43:18.879Z,15.62
2023-05-14T17:45:53.799Z,15.63
2023-05-14T17:48:21.971Z,15.48
2023-05-14T17:50:48.676Z,15.54
2023-05-14T17:53:15.521Z,15.49
2023-05-14T17:55:43.878Z,15.33
2023-05-14T17:58:13.585Z,15.39
2023-05-14T18:00:41.332Z,15.40
2023-05-14T18:03:08.269Z,15.34
2023-05-14T18:05:35.552Z,15.29
2023-05-14T18:08:03.563Z,15.26
2023-05-14T18:10:30.277Z,15.25
2023-05-14T18:12:57.064Z,15.16
2023-05-14T18:15:26.007Z,14.78
2023-05-14T18:17:53.144Z,15.12
2023-05-14T18:20:20.145Z,14.84
2023-05-14T18:22:46.906Z,14.98
2023-05-14T18:25:13.869Z,14.81
2023-05-14T18:27:45.041Z,14.72
2023-05-14T18:30:14.789Z,14.53
2023-05-14T18:32:43.970Z,14.39
2023-05-14T18:35:11.856Z,14.45
2023-05-14T18:37:38.843Z,14.45
2023-05-14T18:40:07.077Z,14.42
2023-05-14T18:42:34.263Z,14.37
2023-05-14T18:45:01.853Z,14.43
2023-05-14T18:47:28.907Z,14.35
2023-05-14T18:49:58.230Z,14.27
2023-05-14T18:52:26.457Z,14.17
2023-05-14T18:54:54.160Z,14.12
2023-05-14T18:57:22.527Z,14.03
2023-05-14T18:59:49.339Z,13.87
2023-05-14T19:02:16.412Z,13.65
2023-05-14T19:04:51.834Z,13.49
2023-05-14T19:07:21.405Z,13.33
2023-05-14T19:09:48.503Z,13.19
2023-05-14T19:12:16.304Z,13.05
2023-05-14T19:14:43.095Z,12.93
2023-05-14T19:17:09.814Z,12.82
2023-05-14T19:19:36.736Z,12.61
2023-05-14T19:22:03.581Z,12.65
2023-05-14T19:24:30.400Z,12.53
2023-05-14T19:26:57.144Z,12.47
2023-05-14T19:29:23.877Z,12.35
2023-05-14T19:31:50.678Z,12.34
2023-05-14T19:34:17.466Z,12.33
2023-05-14T19:36:45.303Z,12.34
2023-05-14T19:39:12.166Z,12.42
2023-05-14T19:41:39.044Z,12.45
2023-05-14T19:44:05.804Z,12.46
2023-05-14T19:46:33.729Z,12.58
2023-05-14T19:49:00.639Z,12.42
2023-05-14T19:51:27.848Z,12.60
2023-05-14T19:53:54.569Z,12.66
2023-05-14T19:56:21.774Z,12.66
2023-05-14T19:58:48.600Z,12.63
2023-05-14T20:01:15.434Z,12.61
2023-05-14T20:03:42.216Z,12.56
2023-05-14T20:06:09.077Z,12.57
2023-05-14T20:08:35.920Z,12.61
2023-05-14T20:11:03.376Z,12.44
2023-05-14T20:13:32.167Z,12.60
2023-05-14T20:16:02.168Z,12.60
2023-05-14T20:18:30.163Z,12.52
2023-05-14T20:20:57.090Z,12.44
2023-05-14T20:23:23.785Z,12.25
2023-05-14T20:25:52.594Z,12.06
2023-05-14T20:28:19.304Z,12.21
2023-05-14T20:30:46.080Z,12.16
2023-05-14T20:33:13.881Z,12.13
2023-05-14T20:35:43.909Z,12.11
2023-05-14T20:38:12.940Z,12.11
2023-05-14T20:40:40.878Z,12.07
2023-05-14T20:43:07.590Z,11.95
2023-05-14T20:45:34.448Z,11.90
2023-05-14T20:48:01.451Z,11.84
2023-05-14T20:50:28.414Z,11.80
2023-05-14T20:52:55.764Z,11.23
2023-05-14T20:55:23.034Z,11.73
2023-05-14T20:57:50.020Z,11.69
2023-05-14T21:00:17.316Z,11.62
2023-05-14T21:02:44.025Z,11.64
2023-05-14T21:05:10.942Z,11.56
2023-05-14T21:07:37.715Z,11.53
2023-05-14T21:10:04.908Z,11.51
2023-05-14T21:12:33.069Z,11.40
2023-05-14T21:14:59.853Z,11.37
2023-05-14T21:17:26.604Z,11.35
2023-05-14T21:19:53.350Z,11.28
2023-05-14T21:22:20.158Z,11.21
2023-05-14T21:24:46.898Z,11.01
2023-05-14T21:27:13.656Z,11.06
2023-05-14T21:29:41.584Z,11.02
2023-05-14T21:32:09.364Z,11.01
2023-05-14T21:34:36.092Z,10.99
2023-05-14T21:37:02.964Z,10.99
2023-05-14T21:39:29.590Z,10.94
2023-05-14T21:41:56.387Z,10.90
2023-05-14T21:44:23.155Z,10.83
2023-05-14T21:46:50.016Z,10.76
2023-05-14T21:49:16.696Z,10.72
2023-05-14T21:51:43.959Z,10.75
2023-05-14T21:54:10.766Z,10.64
2023-05-14T21:56:37.480Z,10.76
2023-05-14T21:59:04.915Z,10.76
2023-05-14T22:01:32.619Z,10.72
2023-05-14T22:04:00.491Z,10.64
2023-05-14T22:06:27.412Z,10.62
2023-05-14T22:08:54.056Z,10.59
2023-05-14T22:11:22.072Z,10.54
2023-05-14T22:13:48.758Z,10.54
2023-05-14T22:16:15.508Z,10.48
2023-05-14T22:18:43.001Z,10.44
2023-05-14T22:21:09.724Z,10.42
2023-05-14T22:23:36.464Z,10.41
2023-05-14T22:26:03.359Z,10.39
2023-05-14T22:28:30.127Z,10.37
2023-05-14T22:30:59.778Z,10.29
2023-05-14T22:33:26.657Z,10.22
2023-05-14T22:35:53.405Z,10.34
2023-05-14T22:38:20.640Z,10.35
2023-05-14T22:40:47.325Z,10.27
2023-05-14T22:43:14.112Z,10.32
2023-05-14T22:45:40.754Z,10.28
2023-05-14T22:48:07.412Z,10.28
2023-05-14T22:50:34.120Z,10.27
2023-05-14T22:53:00.899Z,10.26
2023-05-14T22:55:28.116Z,10.21
2023-05-14T22:57:54.988Z,10.21
2023-05-14T23:00:21.886Z,10.18
2023-05-14T23:02:48.529Z,10.20
2023-05-14T23:05:15.595Z,10.10
2023-05-14T23:07:42.437Z,10.11
2023-05-14T23:10:09.494Z,10.19
2023-05-14T23:12:36.267Z,10.15
2023-05-14T23:15:03.409Z,10.19
2023-05-14T23:17:30.204Z,10.19
2023-05-14T23:19:57.449Z,10.20
2023-05-14T23:22:24.182Z,10.20
2023-05-14T23:24:51.108Z,10.09
2023-05-14T23:27:17.889Z,10.11
2023-05-14T23:29:45.101Z,10.10
2023-05-14T23:32:11.929Z,10.15
2023-05-14T23:34:38.711Z,10.12
2023-05-14T23:37:05.580Z,10.09
2023-05-14T23:39:33.118Z,10.01
2023-05-14T23:41:59.818Z,10.07
2023-05-14T23:44:26.596Z,10.04
2023-05-14T23:46:53.636Z,10.03
2023-05-14T23:49:20.516Z,10.02
2023-05-14T23:51:47.235Z,10.00
2023-05-14T23:54:13.996Z,9.97
2023-05-14T23:56:41.018Z,9.99
2023-05-14T23:59:07.763Z,9.93
